Time;durP1;ratioP1;P1;durP2;ratioP2;P2;SDS_P1;SDS_P2;PMS_P1;PMS_P2;Temp;Humidity;BMP_temperature;BMP_pressure;BME280_temperature;BME280_humidity;BME280_pressure;Samples;Min_cycle;Max_cycle;Signal;HPM_P1;HPM_P2
2023/06/19 00:00:52;;;;;;;71.17;10.47;;;24.00;33.10;;;;;;5085003;28;20657;-80
2023/06/19 00:03:18;;;;;;;73.53;10.47;;;24.00;30.00;;;;;;5084869;28;20181;-82
2023/06/19 00:05:43;;;;;;;72.70;11.23;;;23.90;28.70;;;;;;5085395;28;20157;-82
2023/06/19 00:08:09;;;;;;;70.83;11.00;;;23.80;29.00;;;;;;5068640;28;20189;-82
2023/06/19 00:10:35;;;;;;;71.73;11.17;;;23.80;28.00;;;;;;5071401;28;20301;-82
2023/06/19 00:13:01;;;;;;;73.83;10.87;;;23.90;26.90;;;;;;5068642;28;20432;-83
2023/06/19 00:15:29;;;;;;;72.50;10.80;;;23.80;28.90;;;;;;5088796;28;20238;-82
2023/06/19 00:17:58;;;;;;;73.10;11.87;;;23.70;27.90;;;;;;5089478;28;20186;-82
2023/06/19 00:20:24;;;;;;;73.13;11.67;;;23.70;28.00;;;;;;5088179;28;20446;-82
2023/06/19 00:22:51;;;;;;;74.40;12.60;;;23.70;28.80;;;;;;5088792;28;20407;-82
2023/06/19 00:25:19;;;;;;;70.67;12.20;;;23.60;31.90;;;;;;5088633;28;20166;-82
2023/06/19 00:27:45;;;;;;;72.37;12.87;;;23.60;29.80;;;;;;5070258;28;20417;-82
2023/06/19 00:30:11;;;;;;;73.63;13.20;;;23.60;29.80;;;;;;5088993;28;20444;-82
2023/06/19 00:32:46;;;;;;;71.90;13.60;;;23.60;27.10;;;;;;5070438;28;20411;-82
2023/06/19 00:35:17;;;;;;;73.90;14.83;;;23.70;27.50;;;;;;5088513;28;20416;-82
2023/06/19 00:37:44;;;;;;;80.80;14.53;;;23.50;35.70;;;;;;5069948;28;20424;-81
2023/06/19 00:40:21;;;;;;;74.47;16.07;;;23.50;34.00;;;;;;5087427;28;20456;-82
2023/06/19 00:42:46;;;;;;;76.10;16.80;;;23.40;33.90;;;;;;5070487;28;20478;-81
2023/06/19 00:45:12;;;;;;;73.00;14.33;;;23.50;32.20;;;;;;5070227;28;20400;-82
2023/06/19 00:47:38;;;;;;;73.87;14.50;;;23.50;31.40;;;;;;5087873;28;20237;-82
2023/06/19 00:50:04;;;;;;;73.30;15.07;;;23.40;31.80;;;;;;5069794;28;20170;-81
2023/06/19 00:52:30;;;;;;;73.47;14.70;;;23.40;37.80;;;;;;5086338;28;20451;-81
2023/06/19 00:54:56;;;;;;;75.20;18.33;;;23.30;38.10;;;;;;5069948;28;20408;-82
2023/06/19 00:57:22;;;;;;;73.83;18.03;;;23.40;31.30;;;;;;5069901;28;20196;-82
2023/06/19 00:59:49;;;;;;;75.60;20.40;;;23.60;29.40;;;;;;5070513;28;20436;-81
2023/06/19 01:02:15;;;;;;;73.40;17.17;;;23.60;31.10;;;;;;5069623;28;20415;-82
2023/06/19 01:04:41;;;;;;;74.00;16.00;;;23.60;33.40;;;;;;5088023;28;20854;-81
2023/06/19 01:07:11;;;;;;;76.10;16.77;;;23.60;32.10;;;;;;5087991;28;20182;-82
2023/06/19 01:09:46;;;;;;;75.17;17.73;;;23.60;30.00;;;;;;5069929;28;20401;-82
2023/06/19 01:12:20;;;;;;;74.13;15.90;;;23.60;33.90;;;;;;5086814;28;20425;-82
2023/06/19 01:15:02;;;;;;;76.50;18.27;;;23.50;38.60;;;;;;5087882;28;20388;-82
2023/06/19 01:17:29;;;;;;;76.17;19.70;;;23.40;40.30;;;;;;5068727;28;20430;-82
2023/06/19 01:19:59;;;;;;;75.13;19.30;;;23.40;38.70;;;;;;5085940;28;20395;-81
2023/06/19 01:22:28;;;;;;;76.70;22.50;;;23.30;40.30;;;;;;5086940;28;20392;-81
2023/06/19 01:24:54;;;;;;;75.60;21.00;;;23.30;41.20;;;;;;5069460;28;20979;-82
2023/06/19 01:27:20;;;;;;;75.47;21.30;;;23.40;37.10;;;;;;5087114;28;20419;-82
2023/06/19 01:29:46;;;;;;;78.87;25.70;;;23.30;41.50;;;;;;5069544;28;20259;-81
2023/06/19 01:32:24;;;;;;;78.70;22.43;;;23.20;43.80;;;;;;5087590;28;20410;-81
2023/06/19 01:34:51;;;;;;;79.40;23.50;;;23.20;47.40;;;;;;5087499;28;20176;-82
2023/06/19 01:37:17;;;;;;;77.10;23.47;;;23.20;43.30;;;;;;5086567;28;20420;-81
2023/06/19 01:39:45;;;;;;;76.50;23.80;;;23.20;44.10;;;;;;5083752;28;20398;-82
2023/06/19 01:42:12;;;;;;;76.97;23.13;;;23.20;43.60;;;;;;5087466;28;20932;-81
2023/06/19 01:44:38;;;;;;;79.53;25.90;;;23.20;47.40;;;;;;5087423;28;20406;-81
2023/06/19 01:47:11;;;;;;;78.60;29.17;;;23.20;46.20;;;;;;5069075;28;20439;-81
2023/06/19 01:49:38;;;;;;;77.57;30.27;;;23.20;46.70;;;;;;5069129;28;20168;-81
2023/06/19 01:52:04;;;;;;;79.87;33.53;;;23.20;45.70;;;;;;5086514;28;20413;-82
2023/06/19 01:54:29;;;;;;;81.67;32.30;;;23.30;45.80;;;;;;5068534;28;20513;-81
2023/06/19 01:56:56;;;;;;;82.03;30.77;;;23.20;48.50;;;;;;5086645;28;20433;-81
2023/06/19 01:59:22;;;;;;;78.27;27.07;;;23.30;45.30;;;;;;5068194;28;20191;-81
2023/06/19 02:01:48;;;;;;;80.53;31.83;;;23.20;48.60;;;;;;5086396;28;20470;-82
2023/06/19 02:04:13;;;;;;;80.30;31.50;;;23.20;49.30;;;;;;5086089;28;20239;-82
2023/06/19 02:06:39;;;;;;;80.97;31.23;;;23.30;48.20;;;;;;5086269;28;20171;-82
2023/06/19 02:09:05;;;;;;;82.47;36.47;;;23.30;45.70;;;;;;5067915;28;20606;-82
2023/06/19 02:11:30;;;;;;;79.53;31.60;;;23.40;48.70;;;;;;5068327;28;20174;-81
2023/06/19 02:13:56;;;;;;;79.40;33.10;;;23.40;49.20;;;;;;5085895;28;20476;-81
2023/06/19 02:16:22;;;;;;;81.77;35.47;;;23.40;47.60;;;;;;5086295;28;20160;-82
2023/06/19 02:18:47;;;;;;;83.93;37.30;;;23.40;47.70;;;;;;5085641;28;20192;-81
2023/06/19 02:21:13;;;;;;;83.30;39.23;;;23.40;49.40;;;;;;5067344;28;20200;-82
2023/06/19 02:23:39;;;;;;;81.97;38.67;;;23.40;51.20;;;;;;5068201;28;20232;-81
2023/06/19 02:26:04;;;;;;;83.93;46.90;;;23.40;53.60;;;;;;5067326;28;20177;-81
2023/06/19 02:28:30;;;;;;;80.47;34.23;;;23.40;52.20;;;;;;5085411;28;20191;-81
2023/06/19 02:30:55;;;;;;;82.40;37.83;;;23.40;56.00;;;;;;5084882;28;20168;-82
2023/06/19 02:33:21;;;;;;;81.00;38.77;;;23.30;55.10;;;;;;5085157;28;20173;-81
2023/06/19 02:35:47;;;;;;;84.43;39.13;;;23.30;57.20;;;;;;5067166;28;20177;-82
2023/06/19 02:38:12;;;;;;;79.07;32.70;;;23.30;57.00;;;;;;5085656;28;20193;-81
2023/06/19 02:40:39;;;;;;;79.37;34.67;;;23.30;58.10;;;;;;5086332;28;20196;-81
2023/06/19 02:43:04;;;;;;;82.77;33.47;;;23.30;58.10;;;;;;5067970;28;20193;-81
2023/06/19 02:45:30;;;;;;;83.30;40.60;;;23.30;56.40;;;;;;5067900;28;20425;-81
2023/06/19 02:47:56;;;;;;;81.87;38.17;;;23.30;58.10;;;;;;5085320;28;20212;-81
2023/06/19 02:50:21;;;;;;;84.00;43.87;;;23.20;61.40;;;;;;5085464;28;20196;-81
2023/06/19 02:52:47;;;;;;;81.27;35.27;;;23.20;63.40;;;;;;5085361;28;20171;-82
2023/06/19 02:55:13;;;;;;;85.53;44.20;;;23.20;65.00;;;;;;5085464;28;20267;-82
2023/06/19 02:57:38;;;;;;;81.40;37.70;;;23.10;64.00;;;;;;5067726;28;20195;-82
2023/06/19 03:00:09;;;;;;;80.47;35.73;;;23.10;63.90;;;;;;5085116;28;20179;-82
2023/06/19 03:02:41;;;;;;;80.83;36.10;;;23.10;62.30;;;;;;5086237;28;20145;-81
2023/06/19 03:05:07;;;;;;;81.60;38.93;;;23.10;61.10;;;;;;5064828;28;20438;-81
2023/06/19 03:07:33;;;;;;;82.37;37.63;;;23.10;60.80;;;;;;5085008;28;20429;-82
2023/06/19 03:09:58;;;;;;;85.00;34.40;;;23.10;64.60;;;;;;5067324;28;20543;-81
2023/06/19 03:12:24;;;;;;;80.80;34.83;;;23.00;62.90;;;;;;5086013;28;20167;-82
2023/06/19 03:14:50;;;;;;;80.47;28.80;;;23.00;62.90;;;;;;5086051;28;20489;-82
2023/06/19 03:17:15;;;;;;;78.50;31.23;;;22.90;62.20;;;;;;5085582;28;20205;-82
2023/06/19 03:19:41;;;;;;;80.93;32.70;;;22.90;62.80;;;;;;5084672;28;20168;-82
2023/06/19 03:22:06;;;;;;;78.47;27.87;;;22.90;62.60;;;;;;5066857;28;20613;-82
2023/06/19 03:24:32;;;;;;;78.20;29.00;;;22.80;60.90;;;;;;5085009;28;20179;-82
2023/06/19 03:26:58;;;;;;;80.50;35.87;;;22.80;62.10;;;;;;5066921;28;20192;-82
2023/06/19 03:29:23;;;;;;;81.07;30.90;;;22.80;64.20;;;;;;5066888;28;20172;-82
2023/06/19 03:31:50;;;;;;;79.73;26.40;;;22.70;61.10;;;;;;5084997;28;20244;-81
2023/06/19 03:34:16;;;;;;;79.57;29.87;;;22.70;60.30;;;;;;5085376;28;20235;-82
2023/06/19 03:36:41;;;;;;;78.13;29.23;;;22.70;60.70;;;;;;5085738;28;20762;-81
2023/06/19 03:39:07;;;;;;;79.40;25.20;;;22.70;60.70;;;;;;5067395;28;20547;-82
2023/06/19 03:41:33;;;;;;;77.57;24.80;;;22.70;56.80;;;;;;5066940;28;20203;-82
2023/06/19 03:43:58;;;;;;;81.03;29.87;;;22.70;57.20;;;;;;5089972;28;20190;-81
2023/06/19 03:46:24;;;;;;;78.20;28.83;;;22.50;61.80;;;;;;5089536;28;20164;-82
2023/06/19 03:48:50;;;;;;;79.43;31.87;;;22.50;64.00;;;;;;5071811;28;20734;-82
2023/06/19 03:51:15;;;;;;;77.70;22.00;;;22.40;61.50;;;;;;5071707;28;20172;-81
2023/06/19 03:53:42;;;;;;;75.83;18.90;;;22.50;57.30;;;;;;5070381;28;20164;-81
2023/06/19 03:56:08;;;;;;;74.87;14.97;;;22.50;52.90;;;;;;5069327;28;20581;-82
2023/06/19 03:58:33;;;;;;;78.70;17.93;;;22.30;41.90;;;;;;5069651;28;20434;-82
2023/06/19 04:00:59;;;;;;;73.53;12.47;;;22.40;41.30;;;;;;5069641;28;20454;-82
2023/06/19 04:03:25;;;;;;;74.53;11.50;;;22.50;31.60;;;;;;5156673;22;20229;-82
2023/06/19 04:05:56;;;;;;;70.80;9.40;;;22.40;27.80;;;;;;5080388;28;20159;-82
2023/06/19 04:08:22;;;;;;;76.37;11.57;;;22.50;21.10;;;;;;5080133;28;20682;-81
2023/06/19 04:10:51;;;;;;;71.67;11.07;;;22.40;22.00;;;;;;5061898;28;20415;-82
2023/06/19 04:13:17;;;;;;;70.57;9.13;;;22.40;21.00;;;;;;5062058;28;20585;-82
2023/06/19 04:15:49;;;;;;;71.47;10.80;;;22.40;23.60;;;;;;5080179;28;20739;-82
2023/06/19 04:18:15;;;;;;;73.60;11.10;;;22.30;25.90;;;;;;5081021;28;20415;-82
2023/06/19 04:20:49;;;;;;;71.20;10.90;;;22.30;26.10;;;;;;5062153;28;20449;-82
2023/06/19 04:23:15;;;;;;;71.07;12.93;;;22.30;28.70;;;;;;5062687;28;20156;-83
2023/06/19 04:25:43;;;;;;;72.07;13.10;;;22.30;29.00;;;;;;5081167;28;20932;-82
2023/06/19 04:28:09;;;;;;;72.30;13.03;;;22.30;30.10;;;;;;5082943;28;20241;-82
2023/06/19 04:30:41;;;;;;;70.90;12.00;;;22.40;28.90;;;;;;5086065;28;20812;-83
2023/06/19 04:33:08;;;;;;;71.67;12.17;;;22.40;31.80;;;;;;5068209;28;20247;-83
2023/06/19 04:35:39;;;;;;;70.90;12.60;;;22.40;30.70;;;;;;5086022;28;20453;-83
2023/06/19 04:38:16;;;;;;;70.07;12.23;;;22.50;31.30;;;;;;5084437;28;20640;-82
2023/06/19 04:41:08;;;;;;;70.70;13.30;;;22.50;31.70;;;;;;5084741;28;20418;-83
2023/06/19 04:43:42;;;;;;;74.70;14.63;;;22.50;30.80;;;;;;5086810;28;20397;-83
2023/06/19 04:46:08;;;;;;;70.97;15.03;;;22.40;34.60;;;;;;5086049;28;20378;-83
2023/06/19 04:48:41;;;;;;;75.00;14.57;;;22.50;34.90;;;;;;5068270;28;20432;-83
2023/06/19 04:51:12;;;;;;;72.70;17.73;;;22.40;39.30;;;;;;5086164;28;20210;-83
2023/06/19 04:53:38;;;;;;;72.10;16.30;;;22.30;40.80;;;;;;5085808;28;20414;-83
2023/06/19 04:56:08;;;;;;;73.10;16.47;;;22.30;39.70;;;;;;5085033;28;20410;-83
2023/06/19 04:58:59;;;;;;;;;;;;;;;;;;;;;
2023/06/19 05:01:57;;;;;;;72.10;15.53;;;22.50;41.10;;;;;;5086068;28;20521;-83
2023/06/19 05:04:34;;;;;;;72.93;18.50;;;22.50;43.90;;;;;;5069158;28;20422;-83
2023/06/19 05:07:00;;;;;;;71.77;16.67;;;22.50;40.10;;;;;;5086824;28;20418;-83
2023/06/19 05:09:31;;;;;;;72.23;20.23;;;22.50;41.00;;;;;;5085792;28;20417;-83
2023/06/19 05:12:05;;;;;;;74.27;20.23;;;22.50;42.30;;;;;;5068955;28;20539;-83
2023/06/19 05:14:31;;;;;;;74.00;24.33;;;22.40;46.70;;;;;;5087344;28;20406;-83
2023/06/19 05:16:59;;;;;;;74.63;19.83;;;22.50;45.90;;;;;;5087350;28;20426;-83
2023/06/19 05:19:30;;;;;;;75.57;18.97;;;22.50;46.00;;;;;;5087276;28;20168;-83
2023/06/19 05:21:59;;;;;;;72.97;19.07;;;22.60;42.00;;;;;;5085560;28;20434;-83
2023/06/19 05:24:24;;;;;;;72.63;18.53;;;22.70;41.70;;;;;;5083950;28;20395;-83
2023/06/19 05:26:50;;;;;;;73.90;20.60;;;22.70;42.50;;;;;;5083454;28;20433;-83
2023/06/19 05:29:16;;;;;;;72.70;16.87;;;22.70;41.40;;;;;;5066191;28;20536;-83
2023/06/19 05:31:41;;;;;;;70.67;14.20;;;22.70;39.50;;;;;;5086616;28;20195;-83
2023/06/19 05:34:07;;;;;;;70.57;13.37;;;22.80;36.10;;;;;;5067712;28;20171;-83
2023/06/19 05:36:33;;;;;;;71.00;14.37;;;22.90;34.80;;;;;;5084926;28;20186;-83
2023/06/19 05:38:59;;;;;;;71.30;15.40;;;22.80;35.80;;;;;;5084770;28;20459;-82
2023/06/19 05:41:24;;;;;;;71.17;14.40;;;22.80;32.80;;;;;;5078370;28;20200;-83
2023/06/19 05:43:50;;;;;;;71.77;13.70;;;22.80;32.50;;;;;;5080265;28;20168;-83
2023/06/19 05:46:16;;;;;;;69.30;11.50;;;22.70;39.30;;;;;;5079971;28;20540;-84
2023/06/19 05:48:44;;;;;;;70.80;15.43;;;22.80;33.60;;;;;;5066540;28;20555;-85
2023/06/19 05:51:10;;;;;;;73.00;15.10;;;22.70;33.40;;;;;;5066413;28;20551;-85
2023/06/19 05:53:36;;;;;;;71.43;15.27;;;22.80;33.60;;;;;;5083767;28;20410;-85
2023/06/19 05:56:08;;;;;;;72.57;18.33;;;22.70;32.50;;;;;;5084141;28;20642;-85
2023/06/19 05:58:34;;;;;;;71.57;13.43;;;22.60;37.30;;;;;;5084390;28;20425;-85
2023/06/19 06:00:59;;;;;;;70.77;15.63;;;22.70;32.80;;;;;;5084558;28;20450;-85
2023/06/19 06:03:25;;;;;;;71.97;19.13;;;22.60;36.70;;;;;;5082861;28;20184;-85
2023/06/19 06:05:51;;;;;;;72.53;17.70;;;22.70;38.00;;;;;;5081701;28;20153;-84
2023/06/19 06:08:17;;;;;;;71.17;14.90;;;22.80;35.90;;;;;;5081420;28;20604;-83
2023/06/19 06:10:43;;;;;;;71.73;15.20;;;22.80;34.00;;;;;;5065774;28;20425;-84
2023/06/19 06:13:08;;;;;;;72.87;14.03;;;23.00;32.00;;;;;;5082466;28;20220;-84
2023/06/19 06:15:34;;;;;;;70.53;13.00;;;23.10;30.30;;;;;;5082750;28;20456;-83
2023/06/19 06:18:00;;;;;;;70.57;12.97;;;23.10;29.50;;;;;;5083543;28;20196;-83
2023/06/19 06:20:26;;;;;;;71.60;14.73;;;23.20;27.30;;;;;;5065226;28;20203;-83
2023/06/19 06:22:53;;;;;;;69.43;11.47;;;23.20;28.00;;;;;;5082880;28;20485;-83
2023/06/19 06:25:19;;;;;;;77.63;15.97;;;23.30;23.30;;;;;;5079365;28;20166;-83
2023/06/19 06:27:45;;;;;;;69.27;12.70;;;23.30;25.90;;;;;;5065184;28;20434;-83
2023/06/19 06:30:11;;;;;;;70.57;8.87;;;23.40;26.10;;;;;;5081261;28;20874;-83
2023/06/19 06:32:38;;;;;;;68.87;7.93;;;23.40;21.00;;;;;;5084651;28;20160;-84
2023/06/19 06:35:04;;;;;;;69.47;11.57;;;23.40;17.00;;;;;;5086973;28;20924;-84
2023/06/19 06:37:29;;;;;;;72.17;12.10;;;23.50;21.40;;;;;;5086054;28;20422;-83
2023/06/19 06:39:55;;;;;;;69.37;10.87;;;23.50;25.60;;;;;;5087553;28;20416;-84
2023/06/19 06:42:21;;;;;;;71.40;10.47;;;23.60;21.10;;;;;;5068572;28;20172;-84
2023/06/19 06:44:47;;;;;;;67.77;6.33;;;23.60;22.60;;;;;;5086164;28;20167;-84
2023/06/19 06:47:13;;;;;;;68.00;7.17;;;23.70;18.80;;;;;;5065393;28;20188;-83
2023/06/19 06:49:38;;;;;;;68.93;5.70;;;23.70;14.30;;;;;;5079267;28;20185;-83
2023/06/19 06:52:05;;;;;;;68.80;5.30;;;23.80;1.50;;;;;;5079772;28;20417;-82
2023/06/19 06:54:30;;;;;;;68.87;5.37;;;23.80;5.80;;;;;;5062653;28;20172;-83
2023/06/19 06:56:58;;;;;;;72.10;5.27;;;23.80;5.00;;;;;;5063983;28;20506;-83
2023/06/19 06:59:25;;;;;;;69.40;4.80;;;23.80;5.10;;;;;;5080582;28;20183;-83
2023/06/19 07:01:50;;;;;;;68.00;5.23;;;23.80;1.00;;;;;;5059315;28;20544;-83
2023/06/19 07:04:16;;;;;;;67.57;4.70;;;23.70;1.00;;;;;;5076687;28;20470;-83
2023/06/19 07:06:42;;;;;;;68.77;4.90;;;23.90;1.00;;;;;;5075953;28;20169;-83
2023/06/19 07:09:08;;;;;;;68.47;6.00;;;24.00;1.00;;;;;;5058963;28;20178;-82
2023/06/19 07:11:33;;;;;;;68.17;5.33;;;24.20;1.00;;;;;;5075746;28;20179;-82
2023/06/19 07:13:59;;;;;;;69.27;5.23;;;24.10;1.00;;;;;;5074615;28;20164;-83
2023/06/19 07:16:25;;;;;;;67.60;4.03;;;24.00;1.00;;;;;;5056795;28;20219;-82
2023/06/19 07:18:50;;;;;;;71.00;5.53;;;24.10;1.00;;;;;;5056607;28;20197;-82
2023/06/19 07:21:16;;;;;;;68.40;5.63;;;24.30;1.00;;;;;;5074649;28;20196;-82
2023/06/19 07:23:45;;;;;;;67.23;4.40;;;24.30;1.00;;;;;;5074654;28;20226;-82
2023/06/19 07:26:11;;;;;;;67.30;4.80;;;24.40;1.00;;;;;;5074804;28;20223;-82
2023/06/19 07:28:36;;;;;;;68.10;4.43;;;24.40;1.00;;;;;;5075875;28;20423;-83
2023/06/19 07:31:03;;;;;;;68.50;4.60;;;24.70;1.00;;;;;;5058807;28;20655;-82
2023/06/19 07:33:32;;;;;;;67.57;4.73;;;24.80;1.00;;;;;;5062682;28;20180;-83
2023/06/19 07:35:57;;;;;;;67.17;4.30;;;24.80;1.00;;;;;;5080108;28;20403;-84
2023/06/19 07:38:23;;;;;;;68.07;4.77;;;24.80;1.00;;;;;;5082261;28;20564;-83
2023/06/19 07:40:49;;;;;;;67.60;4.20;;;24.90;1.00;;;;;;5084311;28;20201;-84
2023/06/19 07:43:15;;;;;;;67.40;4.23;;;24.90;1.00;;;;;;5067880;28;20413;-84
2023/06/19 07:45:41;;;;;;;67.00;4.73;;;24.80;1.00;;;;;;5067273;28;20412;-84
2023/06/19 07:48:06;;;;;;;67.60;4.57;;;24.90;1.00;;;;;;5065396;28;20612;-83
2023/06/19 07:50:32;;;;;;;67.43;4.60;;;24.80;1.00;;;;;;5065096;28;20178;-83
2023/06/19 07:52:58;;;;;;;68.80;5.00;;;24.80;1.00;;;;;;5065472;28;20266;-83
2023/06/19 07:55:23;;;;;;;69.40;4.40;;;24.70;1.00;;;;;;5066253;28;20185;-83
2023/06/19 07:58:18;;;;;;;67.17;4.70;;;24.70;1.00;;;;;;5083788;28;20227;-83
2023/06/19 08:00:44;;;;;;;67.57;4.23;;;24.80;1.00;;;;;;5081963;28;20212;-83
2023/06/19 08:03:10;;;;;;;68.53;4.50;;;24.80;1.00;;;;;;5084347;28;20838;-83
2023/06/19 08:06:14;;;;;;;70.27;5.63;;;24.90;1.00;;;;;;5087608;28;20892;-84
2023/06/19 08:08:39;;;;;;;68.10;5.50;;;24.80;1.00;;;;;;5081557;28;20202;-83
2023/06/19 08:11:05;;;;;;;67.60;5.83;;;24.90;1.00;;;;;;5085088;28;20410;-83
2023/06/19 08:13:31;;;;;;;70.27;5.23;;;24.80;1.00;;;;;;5086367;28;20201;-83
2023/06/19 08:15:57;;;;;;;68.17;5.50;;;24.70;1.00;;;;;;5083210;28;20178;-83
2023/06/19 08:18:23;;;;;;;68.03;5.77;;;24.70;1.00;;;;;;5085168;28;20194;-84
2023/06/19 08:20:49;;;;;;;68.80;5.80;;;24.60;1.00;;;;;;5087757;28;20453;-83
2023/06/19 08:23:14;;;;;;;70.07;7.67;;;24.60;1.00;;;;;;5085389;28;20167;-84
2023/06/19 08:25:40;;;;;;;68.67;6.07;;;24.70;1.00;;;;;;5085105;28;20823;-83
2023/06/19 08:28:06;;;;;;;69.50;5.87;;;24.60;1.00;;;;;;5087127;28;20182;-84
2023/06/19 08:30:32;;;;;;;69.17;5.90;;;24.80;1.00;;;;;;5088389;28;20606;-83
2023/06/19 08:32:57;;;;;;;68.70;6.40;;;24.90;1.00;;;;;;5090579;28;20188;-83
2023/06/19 08:35:23;;;;;;;68.93;5.57;;;25.00;1.00;;;;;;5074549;28;20175;-84
2023/06/19 08:37:48;;;;;;;70.37;5.93;;;25.00;1.00;;;;;;5091604;28;20253;-84
2023/06/19 08:40:14;;;;;;;68.87;5.97;;;25.00;1.00;;;;;;5091386;28;20159;-84
2023/06/19 08:42:42;;;;;;;69.47;5.87;;;25.00;1.00;;;;;;5072985;28;20170;-84
2023/06/19 08:45:08;;;;;;;68.10;5.03;;;25.00;1.00;;;;;;5071876;28;20239;-83
2023/06/19 08:47:34;;;;;;;73.90;7.83;;;25.10;1.00;;;;;;5087685;28;20520;-83
2023/06/19 08:50:00;;;;;;;68.40;6.80;;;25.10;1.00;;;;;;5090037;28;20436;-84
2023/06/19 08:52:34;;;;;;;67.93;5.57;;;25.20;1.00;;;;;;5071061;28;20175;-83
2023/06/19 08:55:03;;;;;;;69.60;4.60;;;25.20;1.00;;;;;;5088085;28;20174;-84
2023/06/19 08:57:37;;;;;;;68.40;5.47;;;25.10;1.00;;;;;;5086243;28;20493;-82
2023/06/19 09:00:05;;;;;;;69.50;6.10;;;25.20;1.00;;;;;;5081701;28;20391;-82
2023/06/19 09:02:42;;;;;;;68.37;5.03;;;25.20;1.00;;;;;;5067539;28;20883;-83
2023/06/19 09:05:15;;;;;;;67.77;5.40;;;25.30;1.00;;;;;;5071157;28;20421;-82
2023/06/19 09:07:42;;;;;;;68.23;6.27;;;25.30;1.00;;;;;;5089132;28;20497;-83
2023/06/19 09:10:23;;;;;;;72.80;4.80;;;25.40;1.00;;;;;;5089753;28;20402;-83
2023/06/19 09:13:03;;;;;;;69.03;4.10;;;25.90;1.00;;;;;;5084347;28;20403;-82
2023/06/19 09:15:32;;;;;;;68.90;3.80;;;25.80;1.00;;;;;;5060594;28;20398;-81
2023/06/19 09:18:11;;;;;;;68.30;4.00;;;25.60;1.00;;;;;;5079648;28;20422;-82
2023/06/19 09:20:47;;;;;;;70.40;4.17;;;25.70;1.00;;;;;;5079063;28;20963;-81
2023/06/19 09:23:13;;;;;;;72.47;4.70;;;25.80;1.00;;;;;;5061607;28;20409;-82
2023/06/19 09:25:50;;;;;;;71.07;4.10;;;25.90;1.00;;;;;;5063484;28;20473;-82
2023/06/19 09:28:22;;;;;;;70.23;4.33;;;25.90;1.00;;;;;;5080444;28;20429;-82
2023/06/19 09:31:02;;;;;;;71.80;4.10;;;26.10;1.00;;;;;;5083015;28;20438;-83
2023/06/19 09:33:30;;;;;;;69.70;4.13;;;26.30;1.00;;;;;;5062881;28;20417;-83
2023/06/19 09:35:58;;;;;;;69.00;4.30;;;26.30;1.00;;;;;;5080982;28;21015;-82
2023/06/19 09:38:30;;;;;;;71.13;3.70;;;26.40;1.00;;;;;;5079405;28;20418;-82
2023/06/19 09:40:59;;;;;;;68.73;3.50;;;26.40;1.00;;;;;;5078841;28;20434;-82
2023/06/19 09:43:35;;;;;;;70.60;4.10;;;26.50;1.00;;;;;;5061353;28;20406;-81
2023/06/19 09:46:02;;;;;;;75.33;5.50;;;26.60;1.00;;;;;;5078766;28;20386;-83
2023/06/19 09:48:30;;;;;;;68.40;3.77;;;26.40;1.00;;;;;;5060711;28;20430;-83
2023/06/19 09:51:19;;;;;;;68.53;3.70;;;26.40;1.00;;;;;;5060796;28;20929;-83
2023/06/19 09:53:46;;;;;;;69.30;3.90;;;26.50;1.00;;;;;;5062196;28;20416;-82
2023/06/19 09:56:16;;;;;;;68.87;3.90;;;26.70;1.00;;;;;;5078400;28;20416;-83
2023/06/19 09:58:45;;;;;;;73.10;4.23;;;26.90;1.00;;;;;;5078847;28;20468;-82
2023/06/19 10:01:12;;;;;;;72.60;4.50;;;26.90;1.00;;;;;;5061793;28;20518;-82
2023/06/19 10:03:40;;;;;;;68.97;4.27;;;27.00;1.00;;;;;;5247382;22;20527;-78
2023/06/19 10:06:06;;;;;;;71.03;4.10;;;27.00;1.00;;;;;;5078820;28;20379;-78
2023/06/19 10:08:43;;;;;;;71.10;4.57;;;27.10;1.00;;;;;;5059254;28;20414;-78
2023/06/19 10:11:09;;;;;;;69.77;4.10;;;27.20;1.00;;;;;;5077227;28;20231;-78
2023/06/19 10:13:40;;;;;;;73.07;5.03;;;27.40;1.00;;;;;;5060797;28;20411;-78
2023/06/19 10:16:07;;;;;;;70.77;5.20;;;27.50;1.00;;;;;;5078242;28;20367;-77
2023/06/19 10:18:43;;;;;;;72.60;5.90;;;27.60;1.00;;;;;;5076608;28;20445;-78
2023/06/19 10:21:19;;;;;;;71.27;6.30;;;27.60;1.00;;;;;;5076157;28;20471;-77
2023/06/19 10:23:54;;;;;;;70.00;5.37;;;27.70;1.00;;;;;;5075949;28;20375;-78
2023/06/19 10:26:21;;;;;;;71.07;5.67;;;27.90;1.00;;;;;;5057861;28;20909;-77
2023/06/19 10:28:49;;;;;;;69.00;4.10;;;28.10;1.00;;;;;;5076683;28;20454;-78
2023/06/19 10:31:15;;;;;;;69.97;4.70;;;28.30;1.00;;;;;;5077511;28;20409;-77
2023/06/19 10:33:41;;;;;;;73.03;4.70;;;28.50;1.00;;;;;;5078027;28;20901;-80
2023/06/19 10:36:18;;;;;;;72.40;5.70;;;28.60;1.00;;;;;;5078627;28;20171;-80
2023/06/19 10:38:47;;;;;;;69.23;3.90;;;28.70;1.00;;;;;;5060932;28;20281;-81
2023/06/19 10:41:24;;;;;;;69.67;4.43;;;28.90;1.00;;;;;;5060097;28;20449;-80
2023/06/19 10:43:58;;;;;;;76.50;4.97;;;29.20;1.00;;;;;;5079490;28;20388;-80
2023/06/19 10:46:28;;;;;;;71.50;5.23;;;29.30;1.00;;;;;;5061052;28;20399;-79
2023/06/19 10:48:59;;;;;;;71.17;4.97;;;29.30;1.00;;;;;;5060798;28;20398;-79
2023/06/19 10:51:25;;;;;;;70.60;5.00;;;29.40;1.00;;;;;;5060169;28;20433;-80
2023/06/19 10:53:53;;;;;;;70.50;5.33;;;29.40;1.00;;;;;;5078856;28;20960;-80
2023/06/19 10:56:20;;;;;;;71.57;6.30;;;29.50;1.00;;;;;;5078042;28;20168;-80
2023/06/19 10:58:46;;;;;;;73.33;9.70;;;29.70;1.00;;;;;;5078029;28;20426;-80
2023/06/19 11:01:12;;;;;;;73.37;9.43;;;29.90;1.00;;;;;;5078088;28;20444;-80
2023/06/19 11:03:37;;;;;;;74.00;8.20;;;30.00;1.00;;;;;;5078454;28;20140;-80
2023/06/19 11:06:03;;;;;;;72.90;9.83;;;29.90;1.00;;;;;;5078355;28;20185;-80
2023/06/19 11:08:29;;;;;;;76.03;14.27;;;30.10;1.00;;;;;;5078314;28;20269;-79
2023/06/19 11:10:55;;;;;;;72.70;10.20;;;30.20;1.00;;;;;;5077675;28;20508;-80
2023/06/19 11:13:21;;;;;;;74.97;19.67;;;30.20;1.00;;;;;;5077771;28;20168;-80
2023/06/19 11:15:50;;;;;;;74.70;17.03;;;30.20;1.00;;;;;;5078311;28;20409;-80
2023/06/19 11:18:17;;;;;;;74.33;13.53;;;30.30;1.00;;;;;;5077987;28;20654;-80
2023/06/19 11:20:53;;;;;;;75.10;15.60;;;30.30;1.00;;;;;;5078013;28;20443;-80
2023/06/19 11:23:27;;;;;;;76.33;18.93;;;30.30;1.00;;;;;;5077841;28;20788;-79
2023/06/19 11:25:52;;;;;;;73.60;13.63;;;30.10;1.00;;;;;;5077819;28;20403;-80
2023/06/19 11:28:22;;;;;;;76.87;14.07;;;30.10;1.00;;;;;;5077473;28;20467;-80
2023/06/19 11:30:49;;;;;;;72.40;8.47;;;30.20;1.00;;;;;;5078095;28;20160;-80
2023/06/19 11:33:15;;;;;;;78.90;12.23;;;30.20;1.00;;;;;;5077683;28;20427;-79
2023/06/19 11:35:47;;;;;;;72.50;11.27;;;30.00;1.00;;;;;;5077002;28;20739;-79
2023/06/19 11:38:19;;;;;;;73.30;11.30;;;30.10;1.00;;;;;;5077678;28;20430;-79
2023/06/19 11:40:45;;;;;;;73.33;12.20;;;30.10;1.00;;;;;;5077528;28;20429;-80
2023/06/19 11:43:11;;;;;;;73.57;12.03;;;29.90;1.00;;;;;;5077628;28;20493;-79
2023/06/19 11:45:49;;;;;;;73.77;12.87;;;30.00;1.00;;;;;;5077604;28;20156;-80
2023/06/19 11:48:21;;;;;;;74.93;11.50;;;30.30;1.00;;;;;;5060256;28;20532;-80
2023/06/19 11:50:47;;;;;;;72.37;8.50;;;30.30;1.00;;;;;;5077755;28;20378;-79
2023/06/19 11:53:13;;;;;;;73.17;12.30;;;30.40;1.00;;;;;;5077852;28;20432;-80
2023/06/19 11:55:39;;;;;;;72.60;11.97;;;30.50;1.00;;;;;;5059493;28;20164;-80
2023/06/19 11:58:05;;;;;;;70.70;6.67;;;30.60;1.00;;;;;;5059432;28;20885;-80
2023/06/19 12:00:31;;;;;;;73.20;6.70;;;30.70;1.00;;;;;;5078359;28;20234;-79
2023/06/19 12:03:00;;;;;;;70.80;8.10;;;30.70;1.00;;;;;;5077173;28;20827;-80
2023/06/19 12:05:25;;;;;;;72.43;11.10;;;30.80;1.00;;;;;;5081487;28;20180;-80
2023/06/19 12:07:51;;;;;;;73.50;13.50;;;30.70;1.00;;;;;;5080933;28;20422;-79
2023/06/19 12:10:17;;;;;;;73.10;6.87;;;30.80;1.00;;;;;;5081111;28;20282;-80
2023/06/19 12:12:42;;;;;;;73.27;10.10;;;31.10;1.00;;;;;;5063913;28;20631;-80
2023/06/19 12:15:08;;;;;;;70.67;6.40;;;31.10;1.00;;;;;;5063727;28;20171;-80
2023/06/19 12:17:34;;;;;;;72.60;5.00;;;31.30;1.00;;;;;;5081370;28;20188;-80
2023/06/19 12:20:00;;;;;;;71.40;5.30;;;31.30;1.00;;;;;;5063428;28;20200;-79
2023/06/19 12:22:27;;;;;;;72.10;6.57;;;31.40;1.00;;;;;;5081338;28;20199;-80
2023/06/19 12:24:52;;;;;;;70.57;5.73;;;31.30;1.00;;;;;;5081264;28;20413;-80
2023/06/19 12:27:18;;;;;;;70.50;4.97;;;31.30;1.00;;;;;;5080400;28;20421;-80
2023/06/19 12:29:44;;;;;;;70.60;4.90;;;31.50;1.00;;;;;;5063213;28;20174;-80
2023/06/19 12:32:09;;;;;;;70.70;5.33;;;31.50;1.00;;;;;;5080718;28;20198;-79
2023/06/19 12:34:35;;;;;;;70.73;7.17;;;31.40;1.00;;;;;;5079266;28;20176;-79
2023/06/19 12:37:01;;;;;;;71.17;4.03;;;31.40;1.00;;;;;;5079616;28;20263;-80
2023/06/19 12:39:27;;;;;;;70.70;5.20;;;31.50;1.00;;;;;;5080420;28;20168;-79